sensor_id;sensor_type;location;lat;lon;timestamp;P1;durP1;ratioP1;P2;durP2;ratioP2
3689;SDS011;1861;50.240;8.596;2023-02-15T00:02:04;35.73;;;15.63;;
3689;SDS011;1861;50.240;8.596;2023-02-15T00:04:33;33.43;;;15.00;;
3689;SDS011;1861;50.240;8.596;2023-02-15T00:07:18;36.73;;;17.33;;
3689;SDS011;1861;50.240;8.596;2023-02-15T00:09:46;31.77;;;14.83;;
3689;SDS011;1861;50.240;8.596;2023-02-15T00:12:15;32.23;;;15.03;;
3689;SDS011;1861;50.240;8.596;2023-02-15T00:14:43;30.43;;;14.63;;
3689;SDS011;1861;50.240;8.596;2023-02-15T00:17:12;38.43;;;16.03;;
3689;SDS011;1861;50.240;8.596;2023-02-15T00:19:40;31.20;;;13.63;;
3689;SDS011;1861;50.240;8.596;2023-02-15T00:22:08;28.80;;;13.70;;
3689;SDS011;1861;50.240;8.596;2023-02-15T00:24:37;31.17;;;12.60;;
3689;SDS011;1861;50.240;8.596;2023-02-15T00:27:05;30.97;;;13.37;;
3689;SDS011;1861;50.240;8.596;2023-02-15T00:29:35;32.13;;;14.23;;
3689;SDS011;1861;50.240;8.596;2023-02-15T00:32:03;34.27;;;13.90;;
3689;SDS011;1861;50.240;8.596;2023-02-15T00:34:32;26.33;;;12.40;;
3689;SDS011;1861;50.240;8.596;2023-02-15T00:37:00;26.67;;;12.73;;
3689;SDS011;1861;50.240;8.596;2023-02-15T00:39:28;33.13;;;14.80;;
3689;SDS011;1861;50.240;8.596;2023-02-15T00:41:59;28.47;;;12.70;;
3689;SDS011;1861;50.240;8.596;2023-02-15T00:44:27;29.57;;;13.53;;
3689;SDS011;1861;50.240;8.596;2023-02-15T00:46:55;31.60;;;13.27;;
3689;SDS011;1861;50.240;8.596;2023-02-15T00:49:23;36.03;;;14.53;;
3689;SDS011;1861;50.240;8.596;2023-02-15T00:51:52;34.20;;;14.73;;
3689;SDS011;1861;50.240;8.596;2023-02-15T00:54:20;33.27;;;13.87;;
3689;SDS011;1861;50.240;8.596;2023-02-15T00:56:49;32.73;;;15.20;;
3689;SDS011;1861;50.240;8.596;2023-02-15T00:59:18;47.67;;;17.13;;
3689;SDS011;1861;50.240;8.596;2023-02-15T01:01:46;28.53;;;12.67;;
3689;SDS011;1861;50.240;8.596;2023-02-15T01:04:15;34.87;;;14.60;;
3689;SDS011;1861;50.240;8.596;2023-02-15T01:06:43;33.47;;;14.27;;
3689;SDS011;1861;50.240;8.596;2023-02-15T01:09:11;33.07;;;14.20;;
3689;SDS011;1861;50.240;8.596;2023-02-15T01:11:40;30.23;;;13.40;;
3689;SDS011;1861;50.240;8.596;2023-02-15T01:14:08;27.77;;;12.67;;
3689;SDS011;1861;50.240;8.596;2023-02-15T01:16:39;28.70;;;12.60;;
3689;SDS011;1861;50.240;8.596;2023-02-15T01:19:07;27.07;;;12.23;;
3689;SDS011;1861;50.240;8.596;2023-02-15T01:21:35;31.00;;;13.60;;
3689;SDS011;1861;50.240;8.596;2023-02-15T01:24:03;28.77;;;13.43;;
3689;SDS011;1861;50.240;8.596;2023-02-15T01:26:31;30.23;;;12.60;;
3689;SDS011;1861;50.240;8.596;2023-02-15T01:28:59;27.10;;;12.57;;
3689;SDS011;1861;50.240;8.596;2023-02-15T01:31:27;25.57;;;12.87;;
3689;SDS011;1861;50.240;8.596;2023-02-15T01:33:56;28.87;;;12.80;;
3689;SDS011;1861;50.240;8.596;2023-02-15T01:36:25;33.70;;;15.00;;
3689;SDS011;1861;50.240;8.596;2023-02-15T01:38:53;27.63;;;13.27;;
3689;SDS011;1861;50.240;8.596;2023-02-15T01:41:21;30.40;;;12.37;;
3689;SDS011;1861;50.240;8.596;2023-02-15T01:43:54;30.80;;;13.97;;
3689;SDS011;1861;50.240;8.596;2023-02-15T01:46:24;26.13;;;12.60;;
3689;SDS011;1861;50.240;8.596;2023-02-15T01:48:58;29.17;;;13.00;;
3689;SDS011;1861;50.240;8.596;2023-02-15T01:51:30;25.60;;;12.20;;
3689;SDS011;1861;50.240;8.596;2023-02-15T01:54:02;30.20;;;14.20;;
3689;SDS011;1861;50.240;8.596;2023-02-15T01:56:37;29.73;;;14.40;;
3689;SDS011;1861;50.240;8.596;2023-02-15T01:59:08;29.17;;;13.50;;
3689;SDS011;1861;50.240;8.596;2023-02-15T02:01:40;31.13;;;13.03;;
3689;SDS011;1861;50.240;8.596;2023-02-15T02:04:11;33.93;;;14.30;;
3689;SDS011;1861;50.240;8.596;2023-02-15T02:06:44;26.80;;;12.93;;
3689;SDS011;1861;50.240;8.596;2023-02-15T02:09:14;34.50;;;14.17;;
3689;SDS011;1861;50.240;8.596;2023-02-15T02:11:43;29.93;;;13.20;;
3689;SDS011;1861;50.240;8.596;2023-02-15T02:14:13;29.10;;;13.50;;
3689;SDS011;1861;50.240;8.596;2023-02-15T02:16:45;33.73;;;14.40;;
3689;SDS011;1861;50.240;8.596;2023-02-15T02:19:25;36.43;;;13.97;;
3689;SDS011;1861;50.240;8.596;2023-02-15T02:25:42;33.63;;;14.77;;
3689;SDS011;1861;50.240;8.596;2023-02-15T02:28:33;30.43;;;13.77;;
3689;SDS011;1861;50.240;8.596;2023-02-15T02:31:38;29.37;;;13.50;;
3689;SDS011;1861;50.240;8.596;2023-02-15T02:34:14;30.63;;;13.50;;
3689;SDS011;1861;50.240;8.596;2023-02-15T02:36:49;25.93;;;12.03;;
3689;SDS011;1861;50.240;8.596;2023-02-15T02:39:24;26.50;;;12.70;;
3689;SDS011;1861;50.240;8.596;2023-02-15T02:42:02;26.53;;;13.20;;
3689;SDS011;1861;50.240;8.596;2023-02-15T02:44:36;29.57;;;13.83;;
3689;SDS011;1861;50.240;8.596;2023-02-15T02:47:11;31.10;;;12.77;;
3689;SDS011;1861;50.240;8.596;2023-02-15T02:49:46;27.00;;;14.00;;
3689;SDS011;1861;50.240;8.596;2023-02-15T02:55:10;26.20;;;12.30;;
3689;SDS011;1861;50.240;8.596;2023-02-15T02:57:42;27.40;;;12.93;;
3689;SDS011;1861;50.240;8.596;2023-02-15T03:00:15;28.90;;;13.23;;
3689;SDS011;1861;50.240;8.596;2023-02-15T03:02:45;28.60;;;13.43;;
3689;SDS011;1861;50.240;8.596;2023-02-15T03:05:18;28.93;;;13.47;;
3689;SDS011;1861;50.240;8.596;2023-02-15T03:07:50;28.60;;;14.10;;
3689;SDS011;1861;50.240;8.596;2023-02-15T03:10:22;31.77;;;14.60;;
3689;SDS011;1861;50.240;8.596;2023-02-15T03:12:51;28.47;;;12.97;;
3689;SDS011;1861;50.240;8.596;2023-02-15T03:15:21;28.07;;;13.00;;
3689;SDS011;1861;50.240;8.596;2023-02-15T03:17:53;30.33;;;14.53;;
3689;SDS011;1861;50.240;8.596;2023-02-15T03:20:28;26.03;;;13.60;;
3689;SDS011;1861;50.240;8.596;2023-02-15T03:23:01;31.13;;;13.70;;
3689;SDS011;1861;50.240;8.596;2023-02-15T03:25:32;28.90;;;14.10;;
3689;SDS011;1861;50.240;8.596;2023-02-15T03:28:05;32.87;;;14.67;;
3689;SDS011;1861;50.240;8.596;2023-02-15T03:30:36;32.03;;;14.60;;
3689;SDS011;1861;50.240;8.596;2023-02-15T03:33:06;36.50;;;15.27;;
3689;SDS011;1861;50.240;8.596;2023-02-15T03:35:39;33.57;;;14.70;;
3689;SDS011;1861;50.240;8.596;2023-02-15T03:38:13;29.40;;;14.17;;
3689;SDS011;1861;50.240;8.596;2023-02-15T03:40:47;29.07;;;14.83;;
3689;SDS011;1861;50.240;8.596;2023-02-15T03:43:34;33.20;;;14.40;;
3689;SDS011;1861;50.240;8.596;2023-02-15T03:46:11;35.50;;;15.00;;
3689;SDS011;1861;50.240;8.596;2023-02-15T03:48:45;34.17;;;15.60;;
3689;SDS011;1861;50.240;8.596;2023-02-15T03:51:19;36.97;;;15.07;;
3689;SDS011;1861;50.240;8.596;2023-02-15T03:54:03;33.27;;;15.97;;
3689;SDS011;1861;50.240;8.596;2023-02-15T03:56:34;30.63;;;15.30;;
3689;SDS011;1861;50.240;8.596;2023-02-15T03:59:04;34.40;;;15.27;;
3689;SDS011;1861;50.240;8.596;2023-02-15T04:01:53;33.93;;;15.00;;
3689;SDS011;1861;50.240;8.596;2023-02-15T04:04:33;38.30;;;17.47;;
3689;SDS011;1861;50.240;8.596;2023-02-15T04:07:04;38.40;;;16.70;;
3689;SDS011;1861;50.240;8.596;2023-02-15T04:09:34;35.47;;;15.40;;
3689;SDS011;1861;50.240;8.596;2023-02-15T04:12:20;37.13;;;15.63;;
3689;SDS011;1861;50.240;8.596;2023-02-15T04:14:48;40.30;;;17.30;;
3689;SDS011;1861;50.240;8.596;2023-02-15T04:17:35;34.40;;;15.87;;
3689;SDS011;1861;50.240;8.596;2023-02-15T04:20:04;33.30;;;15.97;;
3689;SDS011;1861;50.240;8.596;2023-02-15T04:22:52;38.57;;;15.77;;
3689;SDS011;1861;50.240;8.596;2023-02-15T04:25:37;42.50;;;17.20;;
3689;SDS011;1861;50.240;8.596;2023-02-15T04:28:06;37.03;;;15.80;;
3689;SDS011;1861;50.240;8.596;2023-02-15T04:30:34;37.10;;;16.80;;
3689;SDS011;1861;50.240;8.596;2023-02-15T04:33:02;35.13;;;15.53;;
3689;SDS011;1861;50.240;8.596;2023-02-15T04:35:30;41.30;;;17.40;;
3689;SDS011;1861;50.240;8.596;2023-02-15T04:38:01;38.03;;;17.27;;
3689;SDS011;1861;50.240;8.596;2023-02-15T04:40:29;33.70;;;16.30;;
3689;SDS011;1861;50.240;8.596;2023-02-15T04:42:57;33.97;;;15.53;;
3689;SDS011;1861;50.240;8.596;2023-02-15T04:45:25;39.20;;;17.70;;
3689;SDS011;1861;50.240;8.596;2023-02-15T04:47:54;40.90;;;17.80;;
3689;SDS011;1861;50.240;8.596;2023-02-15T04:50:22;38.00;;;16.90;;
3689;SDS011;1861;50.240;8.596;2023-02-15T04:52:50;41.77;;;18.30;;
3689;SDS011;1861;50.240;8.596;2023-02-15T04:55:19;45.93;;;18.50;;
3689;SDS011;1861;50.240;8.596;2023-02-15T04:57:47;40.37;;;17.30;;
3689;SDS011;1861;50.240;8.596;2023-02-15T05:00:16;33.83;;;16.67;;
3689;SDS011;1861;50.240;8.596;2023-02-15T05:02:44;35.20;;;15.30;;
3689;SDS011;1861;50.240;8.596;2023-02-15T05:05:12;41.00;;;17.17;;
3689;SDS011;1861;50.240;8.596;2023-02-15T05:07:41;44.50;;;18.50;;
3689;SDS011;1861;50.240;8.596;2023-02-15T05:10:09;40.33;;;16.73;;
3689;SDS011;1861;50.240;8.596;2023-02-15T05:12:39;39.50;;;16.17;;
3689;SDS011;1861;50.240;8.596;2023-02-15T05:15:07;29.40;;;12.23;;
3689;SDS011;1861;50.240;8.596;2023-02-15T05:17:36;28.13;;;12.40;;
3689;SDS011;1861;50.240;8.596;2023-02-15T05:20:04;30.57;;;12.50;;
3689;SDS011;1861;50.240;8.596;2023-02-15T05:22:33;32.27;;;13.00;;
3689;SDS011;1861;50.240;8.596;2023-02-15T05:25:01;30.77;;;14.10;;
3689;SDS011;1861;50.240;8.596;2023-02-15T05:27:48;27.80;;;11.77;;
3689;SDS011;1861;50.240;8.596;2023-02-15T05:30:34;31.40;;;14.23;;
3689;SDS011;1861;50.240;8.596;2023-02-15T05:33:02;30.80;;;13.87;;
3689;SDS011;1861;50.240;8.596;2023-02-15T05:35:31;36.90;;;14.50;;
3689;SDS011;1861;50.240;8.596;2023-02-15T05:37:59;35.83;;;13.73;;
3689;SDS011;1861;50.240;8.596;2023-02-15T05:40:27;36.00;;;14.60;;
3689;SDS011;1861;50.240;8.596;2023-02-15T05:42:57;34.07;;;13.17;;
3689;SDS011;1861;50.240;8.596;2023-02-15T05:45:25;33.03;;;12.90;;
3689;SDS011;1861;50.240;8.596;2023-02-15T05:47:53;31.27;;;13.33;;
3689;SDS011;1861;50.240;8.596;2023-02-15T05:50:21;40.03;;;15.20;;
3689;SDS011;1861;50.240;8.596;2023-02-15T05:52:49;35.10;;;14.83;;
3689;SDS011;1861;50.240;8.596;2023-02-15T05:55:18;30.30;;;13.17;;
3689;SDS011;1861;50.240;8.596;2023-02-15T05:57:46;26.60;;;12.93;;
3689;SDS011;1861;50.240;8.596;2023-02-15T06:00:17;34.10;;;13.33;;
3689;SDS011;1861;50.240;8.596;2023-02-15T06:02:45;45.63;;;17.80;;
3689;SDS011;1861;50.240;8.596;2023-02-15T06:05:13;42.87;;;17.60;;
3689;SDS011;1861;50.240;8.596;2023-02-15T06:07:42;40.27;;;17.10;;
3689;SDS011;1861;50.240;8.596;2023-02-15T06:10:11;45.00;;;17.10;;
3689;SDS011;1861;50.240;8.596;2023-02-15T06:12:39;48.07;;;18.60;;
3689;SDS011;1861;50.240;8.596;2023-02-15T06:15:07;44.93;;;18.60;;
3689;SDS011;1861;50.240;8.596;2023-02-15T06:17:37;44.47;;;17.10;;
3689;SDS011;1861;50.240;8.596;2023-02-15T06:20:09;39.23;;;17.00;;
3689;SDS011;1861;50.240;8.596;2023-02-15T06:22:38;39.87;;;17.67;;
3689;SDS011;1861;50.240;8.596;2023-02-15T06:25:06;48.43;;;19.90;;
3689;SDS011;1861;50.240;8.596;2023-02-15T06:27:36;43.53;;;18.60;;
3689;SDS011;1861;50.240;8.596;2023-02-15T06:30:05;48.57;;;18.97;;
3689;SDS011;1861;50.240;8.596;2023-02-15T06:32:34;49.50;;;20.37;;
3689;SDS011;1861;50.240;8.596;2023-02-15T06:35:04;51.67;;;21.30;;
3689;SDS011;1861;50.240;8.596;2023-02-15T06:37:33;43.13;;;18.77;;
3689;SDS011;1861;50.240;8.596;2023-02-15T06:40:01;47.77;;;20.07;;
3689;SDS011;1861;50.240;8.596;2023-02-15T06:42:30;51.03;;;20.20;;
3689;SDS011;1861;50.240;8.596;2023-02-15T06:44:58;46.20;;;19.40;;
3689;SDS011;1861;50.240;8.596;2023-02-15T06:47:27;46.90;;;19.77;;
3689;SDS011;1861;50.240;8.596;2023-02-15T06:49:55;40.17;;;18.10;;
3689;SDS011;1861;50.240;8.596;2023-02-15T06:52:25;41.60;;;18.23;;
3689;SDS011;1861;50.240;8.596;2023-02-15T06:54:53;51.67;;;18.10;;
3689;SDS011;1861;50.240;8.596;2023-02-15T06:57:21;42.10;;;17.90;;
3689;SDS011;1861;50.240;8.596;2023-02-15T06:59:49;42.47;;;17.10;;
3689;SDS011;1861;50.240;8.596;2023-02-15T07:02:19;39.70;;;17.77;;
3689;SDS011;1861;50.240;8.596;2023-02-15T07:04:47;38.50;;;16.80;;
3689;SDS011;1861;50.240;8.596;2023-02-15T07:07:15;40.33;;;16.33;;
3689;SDS011;1861;50.240;8.596;2023-02-15T07:09:44;41.50;;;17.40;;
3689;SDS011;1861;50.240;8.596;2023-02-15T07:12:12;33.40;;;15.63;;
3689;SDS011;1861;50.240;8.596;2023-02-15T07:14:58;38.80;;;16.87;;
3689;SDS011;1861;50.240;8.596;2023-02-15T07:17:26;40.50;;;16.77;;
3689;SDS011;1861;50.240;8.596;2023-02-15T07:20:03;37.27;;;15.73;;
3689;SDS011;1861;50.240;8.596;2023-02-15T07:22:34;38.07;;;16.03;;
3689;SDS011;1861;50.240;8.596;2023-02-15T07:25:05;34.70;;;15.47;;
3689;SDS011;1861;50.240;8.596;2023-02-15T07:27:35;36.53;;;16.10;;
3689;SDS011;1861;50.240;8.596;2023-02-15T07:30:03;38.20;;;16.73;;
3689;SDS011;1861;50.240;8.596;2023-02-15T07:32:34;40.07;;;15.53;;
3689;SDS011;1861;50.240;8.596;2023-02-15T07:35:03;44.10;;;17.50;;
3689;SDS011;1861;50.240;8.596;2023-02-15T07:37:31;36.27;;;15.33;;
3689;SDS011;1861;50.240;8.596;2023-02-15T07:39:59;40.60;;;15.50;;
3689;SDS011;1861;50.240;8.596;2023-02-15T07:42:28;38.93;;;16.83;;
3689;SDS011;1861;50.240;8.596;2023-02-15T07:44:58;35.20;;;15.23;;
3689;SDS011;1861;50.240;8.596;2023-02-15T07:47:26;42.03;;;17.27;;
3689;SDS011;1861;50.240;8.596;2023-02-15T07:49:54;41.30;;;16.23;;
3689;SDS011;1861;50.240;8.596;2023-02-15T07:52:22;44.27;;;15.93;;
3689;SDS011;1861;50.240;8.596;2023-02-15T07:54:50;43.80;;;15.10;;
3689;SDS011;1861;50.240;8.596;2023-02-15T07:57:18;39.90;;;16.90;;
3689;SDS011;1861;50.240;8.596;2023-02-15T07:59:47;43.33;;;16.80;;
3689;SDS011;1861;50.240;8.596;2023-02-15T08:02:15;47.90;;;19.00;;
3689;SDS011;1861;50.240;8.596;2023-02-15T08:04:44;41.63;;;15.93;;
3689;SDS011;1861;50.240;8.596;2023-02-15T08:07:12;40.50;;;16.73;;
3689;SDS011;1861;50.240;8.596;2023-02-15T08:09:40;47.47;;;17.93;;
3689;SDS011;1861;50.240;8.596;2023-02-15T08:12:08;39.00;;;17.47;;
3689;SDS011;1861;50.240;8.596;2023-02-15T08:14:36;43.53;;;18.23;;
3689;SDS011;1861;50.240;8.596;2023-02-15T08:17:06;38.00;;;18.00;;
3689;SDS011;1861;50.240;8.596;2023-02-15T08:19:34;42.43;;;16.80;;
3689;SDS011;1861;50.240;8.596;2023-02-15T08:22:02;40.73;;;17.60;;
3689;SDS011;1861;50.240;8.596;2023-02-15T08:24:32;38.23;;;15.97;;
3689;SDS011;1861;50.240;8.596;2023-02-15T08:27:02;40.07;;;16.80;;
3689;SDS011;1861;50.240;8.596;2023-02-15T08:29:32;32.83;;;15.57;;
3689;SDS011;1861;50.240;8.596;2023-02-15T08:32:01;35.90;;;15.60;;
3689;SDS011;1861;50.240;8.596;2023-02-15T08:34:33;31.63;;;14.70;;
3689;SDS011;1861;50.240;8.596;2023-02-15T08:37:03;34.70;;;14.77;;
3689;SDS011;1861;50.240;8.596;2023-02-15T08:39:32;30.83;;;13.70;;
3689;SDS011;1861;50.240;8.596;2023-02-15T08:42:01;31.10;;;13.43;;
3689;SDS011;1861;50.240;8.596;2023-02-15T08:44:29;29.97;;;13.07;;
3689;SDS011;1861;50.240;8.596;2023-02-15T08:46:57;25.83;;;12.70;;
3689;SDS011;1861;50.240;8.596;2023-02-15T08:49:30;24.70;;;11.77;;
3689;SDS011;1861;50.240;8.596;2023-02-15T08:51:59;25.67;;;11.13;;
3689;SDS011;1861;50.240;8.596;2023-02-15T08:54:27;26.97;;;13.07;;
3689;SDS011;1861;50.240;8.596;2023-02-15T08:56:56;22.57;;;11.63;;
3689;SDS011;1861;50.240;8.596;2023-02-15T08:59:24;22.43;;;11.50;;
3689;SDS011;1861;50.240;8.596;2023-02-15T09:01:53;21.63;;;10.53;;
3689;SDS011;1861;50.240;8.596;2023-02-15T09:04:22;19.43;;;10.83;;
3689;SDS011;1861;50.240;8.596;2023-02-15T09:06:50;23.53;;;12.23;;
3689;SDS011;1861;50.240;8.596;2023-02-15T09:09:20;23.73;;;11.03;;
3689;SDS011;1861;50.240;8.596;2023-02-15T09:11:49;22.53;;;11.00;;
3689;SDS011;1861;50.240;8.596;2023-02-15T09:14:24;19.20;;;9.97;;
3689;SDS011;1861;50.240;8.596;2023-02-15T09:16:53;18.23;;;9.80;;
3689;SDS011;1861;50.240;8.596;2023-02-15T09:19:22;18.80;;;10.20;;
3689;SDS011;1861;50.240;8.596;2023-02-15T09:21:50;23.77;;;11.40;;
3689;SDS011;1861;50.240;8.596;2023-02-15T09:24:20;16.37;;;9.63;;
3689;SDS011;1861;50.240;8.596;2023-02-15T09:26:48;21.20;;;11.47;;
3689;SDS011;1861;50.240;8.596;2023-02-15T09:29:17;19.90;;;10.13;;
3689;SDS011;1861;50.240;8.596;2023-02-15T09:31:46;18.17;;;9.60;;
3689;SDS011;1861;50.240;8.596;2023-02-15T09:34:17;22.77;;;10.27;;
3689;SDS011;1861;50.240;8.596;2023-02-15T09:36:47;19.63;;;10.53;;
3689;SDS011;1861;50.240;8.596;2023-02-15T09:39:16;18.80;;;10.60;;
3689;SDS011;1861;50.240;8.596;2023-02-15T09:47:52;20.70;;;11.20;;
3689;SDS011;1861;50.240;8.596;2023-02-15T09:50:51;21.10;;;11.10;;
3689;SDS011;1861;50.240;8.596;2023-02-15T09:53:36;24.33;;;10.83;;
3689;SDS011;1861;50.240;8.596;2023-02-15T09:56:14;18.90;;;10.83;;
3689;SDS011;1861;50.240;8.596;2023-02-15T09:58:49;20.57;;;11.20;;
3689;SDS011;1861;50.240;8.596;2023-02-15T10:01:27;20.60;;;10.53;;
3689;SDS011;1861;50.240;8.596;2023-02-15T10:04:08;19.50;;;10.23;;
3689;SDS011;1861;50.240;8.596;2023-02-15T10:06:57;26.43;;;11.43;;
3689;SDS011;1861;50.240;8.596;2023-02-15T10:09:35;23.47;;;12.03;;
3689;SDS011;1861;50.240;8.596;2023-02-15T10:12:19;20.63;;;10.60;;
3689;SDS011;1861;50.240;8.596;2023-02-15T10:18:00;20.40;;;11.10;;
3689;SDS011;1861;50.240;8.596;2023-02-15T10:20:38;24.13;;;11.50;;
3689;SDS011;1861;50.240;8.596;2023-02-15T10:23:20;23.87;;;11.93;;
3689;SDS011;1861;50.240;8.596;2023-02-15T10:25:59;23.57;;;12.00;;
3689;SDS011;1861;50.240;8.596;2023-02-15T10:28:33;19.90;;;10.73;;
3689;SDS011;1861;50.240;8.596;2023-02-15T10:31:11;22.60;;;11.50;;
3689;SDS011;1861;50.240;8.596;2023-02-15T10:33:47;22.87;;;10.73;;
3689;SDS011;1861;50.240;8.596;2023-02-15T10:36:27;22.33;;;11.33;;
3689;SDS011;1861;50.240;8.596;2023-02-15T10:39:06;21.40;;;11.53;;
3689;SDS011;1861;50.240;8.596;2023-02-15T10:41:41;20.80;;;11.80;;
3689;SDS011;1861;50.240;8.596;2023-02-15T10:44:20;20.43;;;10.83;;
3689;SDS011;1861;50.240;8.596;2023-02-15T10:47:09;23.43;;;11.10;;
3689;SDS011;1861;50.240;8.596;2023-02-15T10:50:06;23.00;;;11.40;;
3689;SDS011;1861;50.240;8.596;2023-02-15T10:52:47;24.93;;;11.53;;
3689;SDS011;1861;50.240;8.596;2023-02-15T10:55:30;23.27;;;11.20;;
3689;SDS011;1861;50.240;8.596;2023-02-15T10:58:16;22.63;;;10.73;;
3689;SDS011;1861;50.240;8.596;2023-02-15T11:00:54;21.80;;;10.83;;
3689;SDS011;1861;50.240;8.596;2023-02-15T11:03:39;23.43;;;10.67;;
3689;SDS011;1861;50.240;8.596;2023-02-15T11:06:20;18.27;;;9.07;;
3689;SDS011;1861;50.240;8.596;2023-02-15T11:08:50;17.20;;;9.23;;
3689;SDS011;1861;50.240;8.596;2023-02-15T11:11:23;19.27;;;10.17;;
3689;SDS011;1861;50.240;8.596;2023-02-15T11:13:56;19.43;;;9.50;;
3689;SDS011;1861;50.240;8.596;2023-02-15T11:16:29;19.90;;;9.13;;
3689;SDS011;1861;50.240;8.596;2023-02-15T11:19:04;15.00;;;8.07;;
3689;SDS011;1861;50.240;8.596;2023-02-15T11:21:39;16.30;;;9.17;;
3689;SDS011;1861;50.240;8.596;2023-02-15T11:24:11;18.80;;;8.83;;
3689;SDS011;1861;50.240;8.596;2023-02-15T11:26:43;19.07;;;9.53;;
3689;SDS011;1861;50.240;8.596;2023-02-15T11:29:16;15.57;;;9.23;;
3689;SDS011;1861;50.240;8.596;2023-02-15T11:31:51;16.97;;;7.77;;
3689;SDS011;1861;50.240;8.596;2023-02-15T11:34:25;21.47;;;9.30;;
3689;SDS011;1861;50.240;8.596;2023-02-15T11:37:00;13.07;;;7.53;;
3689;SDS011;1861;50.240;8.596;2023-02-15T11:39:32;19.03;;;8.73;;
3689;SDS011;1861;50.240;8.596;2023-02-15T11:42:04;20.03;;;9.57;;
3689;SDS011;1861;50.240;8.596;2023-02-15T11:44:39;17.90;;;9.87;;
3689;SDS011;1861;50.240;8.596;2023-02-15T11:47:13;18.53;;;9.30;;
3689;SDS011;1861;50.240;8.596;2023-02-15T11:49:43;18.00;;;8.70;;
3689;SDS011;1861;50.240;8.596;2023-02-15T11:52:13;22.23;;;9.50;;
3689;SDS011;1861;50.240;8.596;2023-02-15T11:54:44;17.40;;;9.27;;
3689;SDS011;1861;50.240;8.596;2023-02-15T11:57:17;17.93;;;9.03;;
3689;SDS011;1861;50.240;8.596;2023-02-15T11:59:50;18.23;;;9.00;;
3689;SDS011;1861;50.240;8.596;2023-02-15T12:02:23;21.70;;;10.17;;
3689;SDS011;1861;50.240;8.596;2023-02-15T12:04:55;24.77;;;10.73;;
3689;SDS011;1861;50.240;8.596;2023-02-15T12:07:27;19.93;;;10.30;;
3689;SDS011;1861;50.240;8.596;2023-02-15T12:10:02;21.30;;;11.10;;
3689;SDS011;1861;50.240;8.596;2023-02-15T12:12:33;22.80;;;10.70;;
3689;SDS011;1861;50.240;8.596;2023-02-15T12:15:03;23.20;;;10.07;;
3689;SDS011;1861;50.240;8.596;2023-02-15T12:17:33;23.93;;;10.00;;
3689;SDS011;1861;50.240;8.596;2023-02-15T12:20:20;27.60;;;12.70;;
3689;SDS011;1861;50.240;8.596;2023-02-15T12:22:53;25.67;;;10.10;;
3689;SDS011;1861;50.240;8.596;2023-02-15T12:25:29;21.83;;;11.63;;
3689;SDS011;1861;50.240;8.596;2023-02-15T12:28:03;22.73;;;10.87;;
3689;SDS011;1861;50.240;8.596;2023-02-15T12:30:43;25.53;;;12.00;;
3689;SDS011;1861;50.240;8.596;2023-02-15T12:33:13;23.50;;;11.67;;
3689;SDS011;1861;50.240;8.596;2023-02-15T12:35:45;24.60;;;11.70;;
3689;SDS011;1861;50.240;8.596;2023-02-15T12:38:21;26.00;;;11.80;;
3689;SDS011;1861;50.240;8.596;2023-02-15T12:40:56;28.17;;;11.27;;
3689;SDS011;1861;50.240;8.596;2023-02-15T12:43:31;24.37;;;11.47;;
3689;SDS011;1861;50.240;8.596;2023-02-15T12:46:13;25.70;;;11.53;;
3689;SDS011;1861;50.240;8.596;2023-02-15T12:48:48;27.57;;;12.40;;
3689;SDS011;1861;50.240;8.596;2023-02-15T12:51:45;29.37;;;12.80;;
3689;SDS011;1861;50.240;8.596;2023-02-15T12:54:16;25.30;;;12.30;;
3689;SDS011;1861;50.240;8.596;2023-02-15T12:56:56;25.57;;;12.00;;
3689;SDS011;1861;50.240;8.596;2023-02-15T12:59:24;28.50;;;12.60;;
3689;SDS011;1861;50.240;8.596;2023-02-15T13:01:53;35.17;;;13.10;;
3689;SDS011;1861;50.240;8.596;2023-02-15T13:04:22;26.33;;;11.67;;
3689;SDS011;1861;50.240;8.596;2023-02-15T13:06:55;28.67;;;12.43;;
3689;SDS011;1861;50.240;8.596;2023-02-15T13:09:34;33.33;;;12.77;;
3689;SDS011;1861;50.240;8.596;2023-02-15T13:12:14;28.97;;;12.60;;
3689;SDS011;1861;50.240;8.596;2023-02-15T13:14:45;25.47;;;11.30;;
3689;SDS011;1861;50.240;8.596;2023-02-15T13:17:18;26.27;;;12.63;;
3689;SDS011;1861;50.240;8.596;2023-02-15T13:19:51;28.77;;;13.33;;
3689;SDS011;1861;50.240;8.596;2023-02-15T13:22:23;31.93;;;13.67;;
3689;SDS011;1861;50.240;8.596;2023-02-15T13:24:56;34.40;;;13.90;;
3689;SDS011;1861;50.240;8.596;2023-02-15T13:27:27;29.67;;;13.50;;
3689;SDS011;1861;50.240;8.596;2023-02-15T13:30:03;35.67;;;14.20;;
3689;SDS011;1861;50.240;8.596;2023-02-15T13:32:39;35.03;;;13.83;;
3689;SDS011;1861;50.240;8.596;2023-02-15T13:35:09;36.17;;;14.47;;
3689;SDS011;1861;50.240;8.596;2023-02-15T13:37:49;30.67;;;13.57;;
3689;SDS011;1861;50.240;8.596;2023-02-15T13:40:31;38.73;;;16.53;;
3689;SDS011;1861;50.240;8.596;2023-02-15T13:43:05;26.47;;;14.10;;
3689;SDS011;1861;50.240;8.596;2023-02-15T13:45:48;29.60;;;12.80;;
3689;SDS011;1861;50.240;8.596;2023-02-15T13:48:32;30.30;;;12.40;;
3689;SDS011;1861;50.240;8.596;2023-02-15T13:51:18;31.90;;;13.70;;
3689;SDS011;1861;50.240;8.596;2023-02-15T13:53:56;31.83;;;14.97;;
3689;SDS011;1861;50.240;8.596;2023-02-15T13:56:52;43.50;;;15.50;;
3689;SDS011;1861;50.240;8.596;2023-02-15T13:59:32;32.50;;;15.17;;
3689;SDS011;1861;50.240;8.596;2023-02-15T14:02:20;37.90;;;16.80;;
3689;SDS011;1861;50.240;8.596;2023-02-15T14:05:15;40.80;;;16.70;;
3689;SDS011;1861;50.240;8.596;2023-02-15T14:08:00;34.90;;;15.90;;
3689;SDS011;1861;50.240;8.596;2023-02-15T14:10:44;41.17;;;16.53;;
3689;SDS011;1861;50.240;8.596;2023-02-15T14:13:33;36.47;;;15.90;;
3689;SDS011;1861;50.240;8.596;2023-02-15T14:16:26;39.97;;;15.27;;
3689;SDS011;1861;50.240;8.596;2023-02-15T14:19:06;41.67;;;17.10;;
3689;SDS011;1861;50.240;8.596;2023-02-15T14:21:42;37.70;;;16.20;;
3689;SDS011;1861;50.240;8.596;2023-02-15T14:24:24;33.67;;;15.80;;
3689;SDS011;1861;50.240;8.596;2023-02-15T14:27:02;39.03;;;16.47;;
3689;SDS011;1861;50.240;8.596;2023-02-15T14:29:41;31.33;;;14.40;;
3689;SDS011;1861;50.240;8.596;2023-02-15T14:32:16;40.87;;;16.77;;
3689;SDS011;1861;50.240;8.596;2023-02-15T14:34:52;33.47;;;14.00;;
3689;SDS011;1861;50.240;8.596;2023-02-15T14:37:24;31.50;;;14.10;;
3689;SDS011;1861;50.240;8.596;2023-02-15T14:40:00;35.67;;;16.30;;
3689;SDS011;1861;50.240;8.596;2023-02-15T14:42:56;32.53;;;14.23;;
3689;SDS011;1861;50.240;8.596;2023-02-15T14:45:29;32.00;;;15.20;;
3689;SDS011;1861;50.240;8.596;2023-02-15T14:48:05;34.50;;;15.57;;
3689;SDS011;1861;50.240;8.596;2023-02-15T14:50:39;36.03;;;14.83;;
3689;SDS011;1861;50.240;8.596;2023-02-15T14:53:15;35.80;;;15.90;;
3689;SDS011;1861;50.240;8.596;2023-02-15T14:56:05;34.30;;;14.17;;
3689;SDS011;1861;50.240;8.596;2023-02-15T14:58:55;43.80;;;16.30;;
3689;SDS011;1861;50.240;8.596;2023-02-15T15:01:41;37.20;;;15.53;;
3689;SDS011;1861;50.240;8.596;2023-02-15T15:04:22;36.23;;;16.90;;
3689;SDS011;1861;50.240;8.596;2023-02-15T15:06:59;38.87;;;16.40;;
3689;SDS011;1861;50.240;8.596;2023-02-15T15:09:31;46.40;;;17.87;;
3689;SDS011;1861;50.240;8.596;2023-02-15T15:12:18;42.47;;;15.90;;
3689;SDS011;1861;50.240;8.596;2023-02-15T15:15:06;35.90;;;16.27;;
3689;SDS011;1861;50.240;8.596;2023-02-15T15:17:55;37.03;;;15.77;;
3689;SDS011;1861;50.240;8.596;2023-02-15T15:20:38;36.20;;;16.43;;
3689;SDS011;1861;50.240;8.596;2023-02-15T15:23:36;36.50;;;17.03;;
3689;SDS011;1861;50.240;8.596;2023-02-15T15:26:20;34.50;;;14.03;;
3689;SDS011;1861;50.240;8.596;2023-02-15T15:29:00;33.57;;;15.30;;
3689;SDS011;1861;50.240;8.596;2023-02-15T15:31:32;40.67;;;18.30;;
3689;SDS011;1861;50.240;8.596;2023-02-15T15:34:19;36.47;;;16.50;;
3689;SDS011;1861;50.240;8.596;2023-02-15T15:37:10;32.87;;;16.13;;
3689;SDS011;1861;50.240;8.596;2023-02-15T15:40:10;38.27;;;15.47;;
3689;SDS011;1861;50.240;8.596;2023-02-15T15:46:18;47.77;;;16.43;;